createdAt,value
2022-07-29T00:00:45.587Z,59.01
2022-07-29T00:10:50.633Z,59.53
2022-07-29T00:20:54.345Z,59.87
2022-07-29T00:30:57.848Z,59.97
2022-07-29T00:41:01.966Z,60.42
2022-07-29T00:51:13.568Z,60.76
2022-07-29T01:01:17.928Z,60.59
2022-07-29T01:11:22.367Z,60.86
2022-07-29T01:21:53.208Z,61.34
2022-07-29T01:32:20.275Z,61.67
2022-07-29T01:42:40.932Z,62.11
2022-07-29T01:53:11.282Z,62.15
2022-07-29T02:03:18.690Z,62.25
2022-07-29T02:13:25.216Z,61.97
2022-07-29T02:23:50.434Z,62.17
2022-07-29T02:33:58.415Z,62.23
2022-07-29T02:44:11.886Z,62.32
2022-07-29T02:54:45.098Z,62.88
2022-07-29T03:04:50.344Z,63.80
2022-07-29T03:14:54.873Z,63.84
2022-07-29T03:24:59.116Z,64.64
2022-07-29T03:35:10.323Z,64.89
2022-07-29T03:45:19.835Z,64.98
2022-07-29T03:55:24.658Z,65.23
2022-07-29T04:05:28.139Z,64.57
2022-07-29T04:15:32.054Z,64.60
2022-07-29T04:25:49.445Z,63.93
2022-07-29T04:35:55.013Z,64.05
2022-07-29T04:46:04.072Z,63.24
2022-07-29T04:56:07.630Z,63.68
2022-07-29T05:06:19.659Z,64.00
2022-07-29T05:16:22.883Z,62.95
2022-07-29T05:26:26.147Z,61.90
2022-07-29T05:36:35.847Z,60.14
2022-07-29T05:46:39.677Z,57.26
2022-07-29T05:56:56.864Z,54.70
2022-07-29T06:07:14.170Z,56.96
2022-07-29T06:17:18.297Z,53.74
2022-07-29T06:27:22.170Z,52.47
2022-07-29T06:37:38.461Z,51.74
2022-07-29T06:47:42.388Z,48.47
2022-07-29T06:57:47.542Z,48.65
2022-07-29T07:08:05.243Z,47.78
2022-07-29T07:18:08.502Z,48.12
2022-07-29T07:28:19.492Z,45.23
2022-07-29T07:38:29.165Z,43.92
2022-07-29T07:48:37.879Z,44.80
2022-07-29T07:58:41.221Z,47.01
2022-07-29T08:08:48.227Z,47.49
2022-07-29T08:18:52.634Z,48.59
2022-07-29T08:28:58.732Z,49.13
2022-07-29T08:39:03.850Z,46.98
2022-07-29T08:49:14.780Z,45.11
2022-07-29T08:59:22.063Z,43.19
2022-07-29T09:09:26.627Z,45.06
2022-07-29T09:19:35.939Z,45.41
2022-07-29T09:29:39.652Z,43.18
2022-07-29T09:39:46.863Z,42.12
2022-07-29T09:49:59.413Z,40.38
2022-07-29T10:00:10.043Z,38.01
2022-07-29T10:10:23.953Z,39.19
2022-07-29T10:20:29.110Z,40.43
2022-07-29T10:30:32.859Z,37.92
2022-07-29T10:41:27.542Z,38.01
2022-07-29T10:51:55.931Z,35.79
2022-07-29T11:02:35.387Z,37.44
2022-07-29T11:12:38.881Z,36.86
2022-07-29T11:22:47.351Z,33.01
2022-07-29T11:32:50.731Z,34.17
2022-07-29T11:43:00.731Z,34.23
2022-07-29T11:53:13.218Z,32.44
2022-07-29T12:03:35.362Z,31.03
2022-07-29T12:13:40.928Z,29.77
2022-07-29T12:23:59.401Z,29.05
2022-07-29T12:34:08.281Z,29.75
2022-07-29T12:44:16.744Z,31.57
2022-07-29T12:54:21.196Z,29.93
2022-07-29T13:04:33.300Z,28.95
2022-07-29T13:14:42.549Z,28.64
2022-07-29T13:24:50.327Z,27.74
2022-07-29T13:34:54.832Z,27.64
2022-07-29T13:45:01.888Z,27.91
2022-07-29T13:55:07.481Z,29.45
2022-07-29T14:05:11.879Z,30.03
2022-07-29T14:15:24.998Z,27.81
2022-07-29T14:25:28.248Z,26.05
2022-07-29T14:35:39.515Z,27.26
2022-07-29T14:46:08.458Z,26.90
2022-07-29T14:56:35.488Z,28.22
2022-07-29T15:07:11.171Z,30.09
2022-07-29T15:17:14.538Z,29.78
2022-07-29T15:27:22.716Z,29.31
2022-07-29T15:37:49.219Z,29.19
2022-07-29T15:47:56.023Z,30.42
2022-07-29T15:58:00.910Z,30.26
2022-07-29T16:08:24.231Z,30.15
2022-07-29T16:18:37.579Z,30.48
2022-07-29T16:28:44.572Z,30.55
2022-07-29T16:38:50.901Z,31.29
2022-07-29T16:48:56.598Z,30.67
2022-07-29T16:59:03.022Z,31.80
2022-07-29T17:09:08.973Z,31.93
2022-07-29T17:19:12.552Z,32.53
2022-07-29T17:29:16.748Z,34.39
2022-07-29T17:39:20.122Z,34.67
2022-07-29T17:49:23.390Z,35.81
2022-07-29T17:59:33.706Z,36.76
2022-07-29T18:09:39.606Z,36.96
2022-07-29T18:19:51.388Z,38.79
2022-07-29T18:29:59.568Z,40.40
2022-07-29T18:40:10.848Z,41.70
2022-07-29T18:50:17.911Z,41.93
2022-07-29T19:00:21.310Z,42.37
2022-07-29T19:10:29.636Z,44.00
2022-07-29T19:20:33.047Z,46.02
2022-07-29T19:30:40.950Z,47.51
2022-07-29T19:40:44.594Z,47.96
2022-07-29T19:50:48.115Z,50.28
2022-07-29T20:11:49.173Z,52.84
2022-07-29T20:21:55.912Z,53.32
2022-07-29T20:32:01.382Z,54.71
2022-07-29T20:42:06.091Z,55.11
2022-07-29T20:52:12.989Z,55.90
2022-07-29T21:02:16.554Z,57.00
2022-07-29T21:12:30.481Z,56.76
2022-07-29T21:22:34.507Z,57.65
2022-07-29T21:32:46.267Z,58.59
2022-07-29T21:42:53.626Z,60.36
2022-07-29T21:53:03.011Z,60.83
2022-07-29T22:03:15.444Z,60.42
2022-07-29T22:13:19.045Z,59.06
2022-07-29T22:23:29.090Z,59.22
2022-07-29T22:33:39.966Z,59.63
2022-07-29T22:43:47.007Z,60.33
2022-07-29T22:53:50.172Z,61.17
2022-07-29T23:03:53.639Z,62.15
2022-07-29T23:14:02.938Z,63.59
2022-07-29T23:24:08.014Z,65.69
2022-07-29T23:34:11.561Z,66.48
2022-07-29T23:44:14.851Z,68.97
2022-07-29T23:54:19.566Z,69.60
